createdAt,value
2017-05-30T00:00:02.837Z,1011.07
2017-05-30T00:05:02.927Z,1011.08
2017-05-30T00:10:03.433Z,1010.99
2017-05-30T00:15:02.844Z,1010.93
2017-05-30T00:20:03.464Z,1011.03
2017-05-30T00:25:03.107Z,1011.03
2017-05-30T00:30:02.749Z,1011.19
2017-05-30T00:35:03.330Z,1011.05
2017-05-30T00:40:02.867Z,1011.1
2017-05-30T00:45:03.400Z,1011.04
2017-05-30T00:50:02.877Z,1010.94
2017-05-30T00:55:03.323Z,1011.01
2017-05-30T01:00:02.878Z,1011.2
2017-05-30T01:05:03.349Z,1011.34
2017-05-30T01:10:02.798Z,1011.41
2017-05-30T01:15:03.247Z,1011.59
2017-05-30T01:20:02.843Z,1011.69
2017-05-30T01:25:03.465Z,1011.69
2017-05-30T01:30:03.030Z,1011.78
2017-05-30T01:35:02.658Z,1011.7
2017-05-30T01:40:03.178Z,1011.85
2017-05-30T01:45:02.824Z,1011.76
2017-05-30T01:50:03.290Z,1011.52
2017-05-30T01:55:02.795Z,1011.7
2017-05-30T02:00:03.385Z,1011.64
2017-05-30T02:05:02.876Z,1011.66
2017-05-30T02:10:03.437Z,1011.57
2017-05-30T02:15:02.836Z,1011.69
2017-05-30T02:20:03.376Z,1011.55
2017-05-30T02:25:02.925Z,1011.58
2017-05-30T02:30:03.387Z,1011.65
2017-05-30T02:35:02.871Z,1011.6
2017-05-30T02:40:03.469Z,1011.67
2017-05-30T02:45:03.094Z,1011.75
2017-05-30T02:50:03.470Z,1011.75
2017-05-30T02:55:02.936Z,1011.79
2017-05-30T03:00:03.428Z,1011.74
2017-05-30T03:05:02.893Z,1011.74
2017-05-30T03:10:03.538Z,1011.81
2017-05-30T03:15:03.069Z,1011.85
2017-05-30T03:20:03.612Z,1011.91
2017-05-30T03:25:03.166Z,1012.02
2017-05-30T03:30:03.587Z,1012.06
2017-05-30T03:35:03.198Z,1012.1
2017-05-30T03:40:02.875Z,1012.14
2017-05-30T03:45:03.486Z,1012.16
2017-05-30T03:50:02.901Z,1012.24
2017-05-30T03:55:03.473Z,1012.27
2017-05-30T04:00:02.881Z,1012.32
2017-05-30T04:05:03.340Z,1012.31
2017-05-30T04:10:02.839Z,1012.2
2017-05-30T04:15:03.354Z,1012.28
2017-05-30T04:20:02.781Z,1012.28
2017-05-30T04:25:03.274Z,1012.28
2017-05-30T04:30:03.503Z,1012.19
2017-05-30T04:35:02.962Z,1012.25
2017-05-30T04:40:03.426Z,1012.35
2017-05-30T04:55:02.974Z,1012.39
2017-05-30T05:00:03.620Z,1012.42
2017-05-30T05:10:02.766Z,1012.46
2017-05-30T05:15:03.245Z,1012.52
2017-05-30T05:20:02.863Z,1012.54
2017-05-30T05:25:03.360Z,1012.62
2017-05-30T05:30:02.854Z,1012.6
2017-05-30T05:35:03.488Z,1012.58
2017-05-30T05:40:03.160Z,1012.58
2017-05-30T05:45:03.609Z,1012.59
2017-05-30T05:50:02.978Z,1012.62
2017-05-30T05:55:03.585Z,1012.61
2017-05-30T06:00:03.120Z,1012.57
2017-05-30T06:05:02.615Z,1012.57
2017-05-30T06:10:03.154Z,1012.61
2017-05-30T06:15:02.764Z,1012.53
2017-05-30T06:20:03.243Z,1012.63
2017-05-30T06:25:02.669Z,1012.65
2017-05-30T06:30:03.305Z,1012.65
2017-05-30T06:35:02.904Z,1012.84
2017-05-30T06:40:03.582Z,1012.8
2017-05-30T06:45:03.123Z,1012.76
2017-05-30T06:50:03.566Z,1012.78
2017-05-30T06:55:03.032Z,1012.87
2017-05-30T07:00:03.592Z,1012.97
2017-05-30T07:05:03.007Z,1013.03
2017-05-30T07:10:02.686Z,1012.96
2017-05-30T07:15:03.088Z,1013.04
2017-05-30T07:20:03.521Z,1013.04
2017-05-30T07:25:02.935Z,1013.19
2017-05-30T07:30:03.383Z,1013.16
2017-05-30T07:35:02.836Z,1013.25
2017-05-30T07:40:03.565Z,1013.1
2017-05-30T07:45:02.996Z,1013.18
2017-05-30T07:50:03.543Z,1013.18
2017-05-30T07:55:03.090Z,1013.23
2017-05-30T08:00:03.489Z,1013.22
2017-05-30T08:05:03.141Z,1013.23
2017-05-30T08:10:02.769Z,1013.23
2017-05-30T08:15:03.346Z,1013.15
2017-05-30T08:20:02.985Z,1013.15
2017-05-30T08:25:02.715Z,1013.22
2017-05-30T08:30:03.326Z,1013.25
2017-05-30T08:35:02.910Z,1013.25
2017-05-30T08:40:02.660Z,1013.43
2017-05-30T08:45:03.372Z,1013.56
2017-05-30T08:50:03.380Z,1013.41
2017-05-30T08:55:03.194Z,1013.43
2017-05-30T09:00:02.781Z,1013.49
2017-05-30T09:05:03.520Z,1013.61
2017-05-30T09:10:03.608Z,1013.67
2017-05-30T09:15:02.845Z,1013.63
2017-05-30T09:20:03.396Z,1013.53
2017-05-30T09:25:02.789Z,1013.66
2017-05-30T09:30:02.868Z,1013.84
2017-05-30T09:35:03.214Z,1013.84
2017-05-30T09:40:03.513Z,1013.74
2017-05-30T09:45:03.083Z,1013.68
2017-05-30T09:50:02.689Z,1013.6
2017-05-30T09:55:02.689Z,1013.79
2017-05-30T10:00:02.738Z,1013.74
2017-05-30T10:05:03.119Z,1013.72
2017-05-30T10:10:03.373Z,1013.74
2017-05-30T10:15:02.900Z,1013.81
2017-05-30T10:20:03.283Z,1013.86
2017-05-30T10:25:02.638Z,1013.81
2017-05-30T10:30:02.707Z,1013.9
2017-05-30T10:35:02.846Z,1013.85
2017-05-30T10:40:03.351Z,1013.78
2017-05-30T10:45:02.750Z,1013.66
2017-05-30T10:50:02.818Z,1013.84
2017-05-30T10:55:03.214Z,1013.7
2017-05-30T11:00:03.557Z,1013.49
2017-05-30T11:05:03.410Z,1013.54
2017-05-30T11:10:02.774Z,1013.66
2017-05-30T11:15:03.432Z,1013.61
2017-05-30T11:20:02.889Z,1013.72
2017-05-30T11:25:02.741Z,1013.78
2017-05-30T11:30:03.084Z,1013.87
2017-05-30T11:35:03.290Z,1013.86
2017-05-30T11:40:02.780Z,1013.79
2017-05-30T11:45:03.039Z,1013.76
2017-05-30T11:50:03.424Z,1013.65
2017-05-30T11:55:03.402Z,1013.59
2017-05-30T12:00:02.714Z,1013.45
2017-05-30T12:05:03.314Z,1013.48
2017-05-30T12:10:02.723Z,1013.39
2017-05-30T12:15:03.063Z,1013.35
2017-05-30T12:20:03.444Z,1013.32
2017-05-30T12:25:02.786Z,1013.28
2017-05-30T12:30:03.238Z,1013.22
2017-05-30T12:35:02.758Z,1013.21
2017-05-30T12:40:03.182Z,1013.26
2017-05-30T12:45:03.535Z,1013.09
2017-05-30T12:50:03.129Z,1013.38
2017-05-30T12:55:03.332Z,1013.2
2017-05-30T13:00:02.695Z,1013.34
2017-05-30T13:05:03.305Z,1013.34
2017-05-30T13:10:02.810Z,1013.3
2017-05-30T13:15:03.352Z,1013.2
2017-05-30T13:20:02.649Z,1013.03
2017-05-30T13:25:03.094Z,1013
2017-05-30T13:30:03.498Z,1013.03
2017-05-30T13:35:02.997Z,1013.15
2017-05-30T13:40:03.429Z,1013.2
2017-05-30T13:45:03.099Z,1013.17
2017-05-30T13:50:02.766Z,1013.21
2017-05-30T13:55:03.084Z,1013.18
2017-05-30T14:00:03.498Z,1013.28
2017-05-30T14:05:03.268Z,1013.21
2017-05-30T14:10:02.814Z,1013.33
2017-05-30T14:15:03.390Z,1013.38
2017-05-30T14:20:02.987Z,1013.4
2017-05-30T14:25:03.436Z,1013.5
2017-05-30T14:30:02.973Z,1013.36
2017-05-30T14:35:03.482Z,1013.45
2017-05-30T14:40:02.970Z,1013.45
2017-05-30T14:45:03.491Z,1013.37
2017-05-30T14:50:02.964Z,1013.41
2017-05-30T14:55:03.520Z,1013.58
2017-05-30T15:00:03.103Z,1013.56
2017-05-30T15:05:03.527Z,1013.49
2017-05-30T15:10:03.105Z,1013.58
2017-05-30T15:15:02.634Z,1013.53
2017-05-30T15:20:03.119Z,1013.62
2017-05-30T15:25:03.559Z,1013.69
2017-05-30T15:30:03.002Z,1013.77
2017-05-30T15:35:03.595Z,1013.94
2017-05-30T15:40:03.217Z,1014
2017-05-30T15:45:02.828Z,1014.07
2017-05-30T15:50:03.594Z,1013.99
2017-05-30T15:55:02.950Z,1014.1
2017-05-30T16:00:03.367Z,1014.16
2017-05-30T16:05:02.759Z,1014.32
2017-05-30T16:10:03.226Z,1014.41
2017-05-30T16:15:02.719Z,1014.3
2017-05-30T16:20:03.264Z,1014.46
2017-05-30T16:25:02.710Z,1014.4
2017-05-30T16:30:03.170Z,1014.53
2017-05-30T16:35:03.523Z,1014.63
2017-05-30T16:40:03.170Z,1014.73
2017-05-30T16:45:02.753Z,1014.83
2017-05-30T16:50:03.381Z,1015.01
2017-05-30T16:55:02.827Z,1015.02
2017-05-30T17:00:03.161Z,1015.07
2017-05-30T17:05:03.405Z,1015.17
2017-05-30T17:10:03.014Z,1015.3
2017-05-30T17:15:03.466Z,1015.31
2017-05-30T17:20:02.968Z,1015.39
2017-05-30T17:25:03.492Z,1015.47
2017-05-30T17:30:03.140Z,1015.48
2017-05-30T17:35:03.517Z,1015.58
2017-05-30T17:40:03.045Z,1015.62
2017-05-30T17:45:03.528Z,1015.61
2017-05-30T17:50:02.920Z,1015.71
2017-05-30T17:55:03.366Z,1015.75
2017-05-30T18:00:03.031Z,1015.77
2017-05-30T18:05:03.063Z,1015.88
2017-05-30T18:10:02.647Z,1015.96
2017-05-30T18:15:03.195Z,1016
2017-05-30T18:20:02.708Z,1016.08
2017-05-30T18:25:03.215Z,1016.08
2017-05-30T18:30:02.676Z,1016.16
2017-05-30T18:35:03.149Z,1016.1
2017-05-30T18:40:02.767Z,1016.13
2017-05-30T18:45:03.286Z,1016.24
2017-05-30T18:50:02.827Z,1016.25
2017-05-30T18:55:03.442Z,1016.24
2017-05-30T19:00:02.708Z,1016.31
2017-05-30T19:05:03.187Z,1016.41
2017-05-30T19:10:03.618Z,1016.39
2017-05-30T19:15:03.207Z,1016.46
2017-05-30T19:20:03.479Z,1016.52
2017-05-30T19:25:02.884Z,1016.53
2017-05-30T19:30:03.260Z,1016.59
2017-05-30T19:35:03.463Z,1016.76
2017-05-30T19:40:02.892Z,1016.82
2017-05-30T19:45:03.208Z,1016.91
2017-05-30T19:50:03.582Z,1016.98
2017-05-30T19:55:02.824Z,1017.1
2017-05-30T20:00:03.192Z,1017.12
2017-05-30T20:05:03.345Z,1017.32
2017-05-30T20:10:02.778Z,1017.47
2017-05-30T20:15:03.289Z,1017.5
2017-05-30T20:20:03.540Z,1017.52
2017-05-30T20:25:03.008Z,1017.62
2017-05-30T20:30:03.449Z,1017.67
2017-05-30T20:35:02.817Z,1017.72
2017-05-30T20:40:03.312Z,1017.79
2017-05-30T20:45:02.790Z,1017.74
2017-05-30T20:50:03.258Z,1017.76
2017-05-30T20:55:02.608Z,1017.8
2017-05-30T21:00:03.216Z,1017.82
2017-05-30T21:05:02.751Z,1017.79
2017-05-30T21:10:02.930Z,1017.81
2017-05-30T21:15:03.371Z,1017.8
2017-05-30T21:20:02.745Z,1017.85
2017-05-30T21:25:03.097Z,1017.85
2017-05-30T21:30:02.650Z,1017.81
2017-05-30T21:35:02.902Z,1017.95
2017-05-30T21:40:03.342Z,1017.9
2017-05-30T21:45:03.462Z,1018.03
2017-05-30T21:50:03.357Z,1018.07
2017-05-30T21:55:02.844Z,1018.09
2017-05-30T22:00:03.067Z,1018.1
2017-05-30T22:05:03.548Z,1018.18
2017-05-30T22:10:03.050Z,1018.21
2017-05-30T22:15:02.631Z,1018.26
2017-05-30T22:20:02.734Z,1018.26
2017-05-30T22:25:02.933Z,1018.28
2017-05-30T22:30:03.268Z,1018.32
2017-05-30T22:35:03.367Z,1018.32
2017-05-30T22:40:02.751Z,1018.28
2017-05-30T22:45:02.670Z,1018.35
2017-05-30T22:50:03.578Z,1018.28
2017-05-30T22:55:03.442Z,1018.28
2017-05-30T23:00:03.023Z,1018.25
2017-05-30T23:05:03.578Z,1018.21
2017-05-30T23:10:03.372Z,1018.19
2017-05-30T23:15:02.956Z,1018.26
2017-05-30T23:20:03.417Z,1018.21
2017-05-30T23:25:02.944Z,1018.25
2017-05-30T23:30:03.603Z,1018.32
2017-05-30T23:35:03.181Z,1018.32
2017-05-30T23:40:02.631Z,1018.34
2017-05-30T23:45:03.214Z,1018.27
2017-05-30T23:50:03.177Z,1018.37
2017-05-30T23:55:02.903Z,1018.33
